Shinyo Maru — JFCL — position and weather

sailwx.info

Track history (hours):
 
Tides and Currents Weather Stations Pressure Air Temp Water Temp Dewpoint Dewpoint Depression Visibility Wind Speed Wind Dir Waves Ship Positions

Oceanographic research ship Shinyo Maru (Japan)

Detailed information on ship capabilities available from University of Delaware's Ocean Information Center.

Last reported at 2018-Apr-02 12:19 UTC. Time now 2018-Apr-24 01:08 UTC.
Position N 34°22' E 137°46'.
Warning: this ship's position is 21 days out of date.

Length 60 m; beam 10.6 m; draft 4.2 m.

Type: Fishing. MMSI: 431466000.

Date/timePositionNaut miles runAvg speedWind from/ knotsBaromVisibWave heightAir tempDewpointWater temp
2018-Apr-02 12:19N 34°22' E 137°46'711.5
2018-Apr-02 11:42N 34°24' E 137°54'210.8
2018-Apr-02 11:30N 34°24' E 137°57'1211.3
2018-Apr-02 10:25N 34°27' E 138°11'510.5
2018-Apr-02 09:59N 34°29' E 138°17'510.6
2018-Apr-02 09:29N 34°30' E 138°23'510.7
2018-Apr-02 08:58N 34°30' E 138°29'610.7
2018-Apr-02 08:26N 34°31' E 138°36'510.7
2018-Apr-02 08:00N 34°32' E 138°42'710.4
2018-Apr-02 07:20N 34°32' E 138°50'310.1
2018-Apr-02 07:00N 34°33' E 138°54'6 9.9
2018-Apr-02 06:27N 34°35' E 139°01'511.0
2018-Apr-02 06:00N 34°38' E 139°05'8 9.7
2018-Apr-02 05:13N 34°43' E 139°11'210.0
2018-Apr-02 05:00N 34°45' E 139°13'510.2
2018-Apr-02 04:30N 34°49' E 139°17'4 8.5
2018-Apr-02 04:00N 34°51' E 139°21'5 8.7
2018-Apr-02 03:26N 34°54' E 139°26'4 9.7
2018-Apr-02 03:00N 34°57' E 139°30'510.9
2018-Apr-02 02:30N 35°01' E 139°35'611.5
2018-Apr-02 02:00N 35°05' E 139°40'611.8
2018-Apr-02 01:30N 35°09' E 139°44'611.9
2018-Apr-02 01:00N 35°15' E 139°46'612.3
2018-Apr-02 00:31N 35°20' E 139°42'611.8
2018-Apr-02 00:01N 35°26' E 139°42'3 6.5
2018-Apr-01 23:29N 35°29' E 139°39'0 0.0
2018-Apr-01 22:59N 35°29' E 139°39'0 0.0
2018-Apr-01 22:31N 35°29' E 139°39'0 0.0
2018-Apr-01 22:00N 35°29' E 139°39'0 0.0
2018-Apr-01 21:30N 35°29' E 139°39'0 0.0
2018-Apr-01 21:00N 35°29' E 139°39'0 0.0
2018-Apr-01 20:30N 35°29' E 139°39'0 0.0
2018-Apr-01 20:01N 35°29' E 139°39'0 0.0
2018-Apr-01 19:30N 35°29' E 139°39'0 0.0
2018-Apr-01 19:00N 35°29' E 139°39'0 0.0
2018-Apr-01 18:31N 35°29' E 139°39'0 0.0
2018-Apr-01 18:00N 35°29' E 139°39'0 0.0
2018-Apr-01 17:30N 35°29' E 139°39'0 0.0
2018-Apr-01 16:59N 35°29' E 139°39'0 0.0
2018-Apr-01 16:30N 35°29' E 139°39'0 0.0
2018-Apr-01 16:00N 35°29' E 139°39'0 0.0
2018-Apr-01 15:31N 35°29' E 139°39'0 0.0
2018-Apr-01 15:00N 35°29' E 139°39'0 0.0
2018-Apr-01 14:30N 35°29' E 139°39'0 0.0
2018-Apr-01 14:00N 35°29' E 139°39'0 0.0
2018-Apr-01 13:31N 35°29' E 139°39'0 0.0
2018-Apr-01 13:01N 35°29' E 139°39'0 0.0
2018-Apr-01 12:30N 35°29' E 139°39'0 0.0
2018-Apr-01 12:00N 35°29' E 139°39'0 0.0
2018-Apr-01 11:31N 35°29' E 139°39'0 0.0
2018-Apr-01 11:00N 35°29' E 139°39'0 0.0
2018-Apr-01 10:30N 35°29' E 139°39'0 0.0
2018-Apr-01 10:01N 35°29' E 139°39'0 0.0
2018-Apr-01 09:31N 35°29' E 139°39'0 0.0
2018-Apr-01 09:01N 35°29' E 139°39'0 0.0
2018-Apr-01 08:29N 35°29' E 139°39'0 0.0
2018-Apr-01 08:00N 35°29' E 139°39'0 0.0
2018-Apr-01 07:30N 35°29' E 139°39'0 0.0
2018-Apr-01 07:00N 35°29' E 139°39'0 0.0
2018-Apr-01 06:30N 35°29' E 139°39'0 0.0
2018-Apr-01 06:01N 35°29' E 139°39'0 0.0
2018-Apr-01 05:31N 35°29' E 139°39'0 0.0
2018-Apr-01 05:00N 35°29' E 139°39'0 0.0
2018-Apr-01 04:30N 35°29' E 139°39'0 0.0
2018-Apr-01 04:01N 35°29' E 139°39'0 0.0
2018-Apr-01 03:30N 35°29' E 139°39'0 0.0
2018-Apr-01 03:01N 35°29' E 139°39'0 0.0
2018-Apr-01 02:30N 35°29' E 139°39'0 0.0
2018-Apr-01 02:01N 35°29' E 139°39'0 0.0
2018-Apr-01 01:30N 35°29' E 139°39'0 0.0
2018-Apr-01 01:01N 35°29' E 139°39'0 0.0
2018-Apr-01 00:31N 35°29' E 139°39'0 0.0
2018-Apr-01 00:00N 35°29' E 139°39'0 0.0
2018-Mar-31 23:30N 35°29' E 139°39'0 0.0
2018-Mar-31 23:00N 35°29' E 139°39'0 0.0
2018-Mar-31 22:31N 35°29' E 139°39'0 0.0
2018-Mar-31 22:00N 35°29' E 139°39'0 0.0
2018-Mar-31 21:31N 35°29' E 139°39'0 0.0
2018-Mar-31 21:00N 35°29' E 139°39'0 0.0
2018-Mar-31 20:30N 35°29' E 139°39'0 0.0
2018-Mar-31 20:00N 35°29' E 139°39'0 0.0
2018-Mar-31 19:31N 35°29' E 139°39'0 0.0
2018-Mar-31 19:00N 35°29' E 139°39'0 0.0
2018-Mar-31 18:30N 35°29' E 139°39'0 0.0
2018-Mar-31 18:00N 35°29' E 139°39'0 0.0
2018-Mar-31 17:31N 35°29' E 139°39'0 0.0
2018-Mar-31 17:00N 35°29' E 139°39'0 0.0
2018-Mar-31 16:31N 35°29' E 139°39'0 0.0
2018-Mar-31 16:01N 35°29' E 139°39'0 0.0
2018-Mar-31 15:30N 35°29' E 139°39'0 0.0
2018-Mar-31 15:00N 35°29' E 139°39'0 0.0
2018-Mar-31 14:31N 35°29' E 139°39'0 0.0
2018-Mar-31 14:00N 35°29' E 139°39'0 0.0
2018-Mar-31 13:31N 35°29' E 139°39'0 0.0
2018-Mar-31 13:01N 35°29' E 139°39'0 0.0
2018-Mar-31 12:31N 35°29' E 139°39'0 0.0
2018-Mar-31 12:01N 35°29' E 139°39'0 0.0
2018-Mar-31 11:30N 35°29' E 139°39'0 0.0
2018-Mar-31 11:00N 35°29' E 139°39'0 0.0
2018-Mar-31 10:30N 35°29' E 139°39'0 0.0
2018-Mar-31 10:00N 35°29' E 139°39'0 0.0
2018-Mar-31 09:31N 35°29' E 139°39'0 0.0
2018-Mar-31 09:01N 35°29' E 139°39'0 0.0
2018-Mar-31 08:31N 35°29' E 139°39'0 0.0
2018-Mar-31 08:01N 35°29' E 139°39'0 0.0
2018-Mar-31 07:30N 35°29' E 139°39'0 0.0
2018-Mar-31 07:00N 35°29' E 139°39'0 0.0
2018-Mar-31 06:31N 35°29' E 139°39'0 0.0
2018-Mar-31 06:01N 35°29' E 139°39'0 0.0
2018-Mar-31 05:31N 35°29' E 139°39'0 0.0
2018-Mar-31 05:01N 35°29' E 139°39'0 0.0
2018-Mar-31 04:30N 35°29' E 139°39'0 0.0
2018-Mar-31 04:01N 35°29' E 139°39'0 0.0
2018-Mar-31 03:30N 35°29' E 139°39'0 0.0
2018-Mar-31 03:01N 35°29' E 139°39'0 0.0
2018-Mar-31 02:31N 35°29' E 139°39'0 0.0
2018-Mar-31 02:00N 35°29' E 139°39'0 0.0
2018-Mar-31 01:30N 35°29' E 139°39'0 0.0
2018-Mar-31 01:01N 35°29' E 139°39'0 0.0
2018-Mar-31 00:31N 35°29' E 139°39'0 0.0
2018-Mar-31 00:01N 35°29' E 139°39'0 0.0
2018-Mar-30 23:31N 35°29' E 139°39'0 0.0
2018-Mar-30 23:01N 35°29' E 139°39'0 0.0
2018-Mar-30 22:31N 35°29' E 139°39'0 0.0
2018-Mar-30 22:01N 35°29' E 139°39'0 0.0
2018-Mar-30 21:30N 35°29' E 139°39'0 0.0
2018-Mar-30 21:00N 35°29' E 139°39'0 0.0
2018-Mar-30 20:30N 35°29' E 139°39'0 0.0
2018-Mar-30 20:01N 35°29' E 139°39'0 0.0
2018-Mar-30 19:30N 35°29' E 139°39'0 0.0
2018-Mar-30 19:00N 35°29' E 139°39'0 0.0
2018-Mar-30 18:29N 35°29' E 139°39'0 0.0
2018-Mar-30 18:00N 35°29' E 139°39'0 0.0
2018-Mar-30 17:30N 35°29' E 139°39'0 0.0
2018-Mar-30 17:01N 35°29' E 139°39'0 0.0
2018-Mar-30 16:30N 35°29' E 139°39'0 0.0
2018-Mar-30 16:01N 35°29' E 139°39'0 0.0
2018-Mar-30 15:31N 35°29' E 139°39'0 0.0
2018-Mar-30 15:00N 35°29' E 139°39'0 0.0
2018-Mar-30 14:30N 35°29' E 139°39'0 0.0
2018-Mar-30 14:00N 35°29' E 139°39'0 0.0
2018-Mar-30 13:31N 35°29' E 139°39'0 0.0
2018-Mar-30 13:00N 35°29' E 139°39'0 0.0
2018-Mar-30 12:31N 35°29' E 139°39'0 0.0
2018-Mar-30 12:00N 35°29' E 139°39'0 0.0
2018-Mar-30 11:31N 35°29' E 139°39'0 0.0
2018-Mar-30 10:59N 35°29' E 139°39'0 0.0
2018-Mar-30 10:29N 35°29' E 139°39'0 0.0
2018-Mar-30 10:01N 35°29' E 139°39'0 0.0
2018-Mar-30 09:31N 35°29' E 139°39'0 0.0
2018-Mar-30 09:01N 35°29' E 139°39'0 0.0
2018-Mar-30 08:30N 35°29' E 139°39'0 0.0
2018-Mar-30 08:00N 35°29' E 139°39'0 0.0
2018-Mar-30 07:30N 35°29' E 139°39'0 0.0
2018-Mar-30 07:00N 35°29' E 139°39'0 0.0
2018-Mar-30 06:31N 35°29' E 139°39'0 0.0
2018-Mar-30 06:00N 35°29' E 139°39'0 0.0
2018-Mar-30 05:30N 35°29' E 139°39'0 0.0
2018-Mar-30 05:01N 35°29' E 139°39'0 0.0
2018-Mar-30 04:31N 35°29' E 139°39'0 0.0
2018-Mar-30 04:01N 35°29' E 139°39'0 0.0
2018-Mar-30 03:30N 35°29' E 139°39'0 0.0
2018-Mar-30 03:00N 35°29' E 139°39'0 0.0
2018-Mar-30 02:30N 35°29' E 139°39'0 0.0
2018-Mar-30 02:01N 35°29' E 139°39'0 0.0
2018-Mar-30 01:30N 35°29' E 139°39'0 0.0
2018-Mar-30 01:00N 35°29' E 139°39'0 0.0
2018-Mar-30 00:30N 35°29' E 139°39'0 0.0
2018-Mar-30 00:01N 35°29' E 139°39'0 0.0
2018-Mar-29 23:30N 35°29' E 139°39'0 0.3
2018-Mar-29 23:01N 35°29' E 139°39'4 7.3
2018-Mar-29 22:31N 35°26' E 139°42'4 8.5
2018-Mar-29 22:00N 35°22' E 139°43'510.2
2018-Mar-29 21:30N 35°17' E 139°45'5 9.8
2018-Mar-29 21:00N 35°12' E 139°47'5 9.4
2018-Mar-29 20:30N 35°08' E 139°46'5 9.4
2018-Mar-29 20:01N 35°03' E 139°45'6 9.6
2018-Mar-29 19:25N 34°58' E 139°43'1910.0
2018-Mar-29 17:33N 34°40' E 139°36'112.3
2018-Mar-29 17:30N 34°39' E 139°35'  
2018-Mar-27 06:26N 34°23' E 137°50'4 8.8
2018-Mar-27 06:00N 34°27' E 137°50'5 9.6
2018-Mar-27 05:30N 34°32' E 137°50'6 9.6
2018-Mar-27 04:54N 34°32' E 137°57'511.7
2018-Mar-27 04:30N 34°32' E 138°03'912.0
2018-Mar-27 03:46N 34°32' E 138°13'412.5
2018-Mar-27 03:25N 34°32' E 138°19'612.0
2018-Mar-27 02:56N 34°32' E 138°26'611.9
2018-Mar-27 02:27N 34°33' E 138°33'611.5
2018-Mar-27 01:56N 34°33' E 138°40'511.8
2018-Mar-27 01:30N 34°33' E 138°46'611.4
2018-Mar-27 01:00N 34°33' E 138°53'610.6
2018-Mar-27 00:29N 34°34' E 138°60'510.8
2018-Mar-27 00:00N 34°35' E 139°06'510.2
2018-Mar-26 23:30N 34°36' E 139°12'5 9.8
2018-Mar-26 23:00N 34°37' E 139°18'510.0
2018-Mar-26 22:30N 34°38' E 139°24'5 9.5
2018-Mar-26 21:57N 34°40' E 139°30'1611.7
2018-Mar-26 20:35N 34°47' E 139°47'112.1
2018-Mar-26 20:30N 34°48' E 139°48'1011.9
2018-Mar-26 19:42N 34°53' E 139°58'212.3
2018-Mar-26 19:30N 34°54' E 140°01'611.9
2018-Mar-26 18:59N 34°57' E 140°07'611.7
2018-Mar-26 18:29N 35°00' E 140°13'611.3
2018-Mar-26 17:58N 35°03' E 140°19'510.6
2018-Mar-26 17:28N 35°06' E 140°24'5 9.8
2018-Mar-26 16:54N 35°09' E 140°30'610.3
2018-Mar-26 16:21N 35°13' E 140°35'511.5
2018-Mar-26 15:55N 35°17' E 140°39'511.8
2018-Mar-26 15:30N 35°21' E 140°42'612.0
2018-Mar-26 14:59N 35°26' E 140°46'  
Track history (hours):
 
Tides and Currents Weather Stations Pressure Air Temp Water Temp Dewpoint Dewpoint Depression Visibility Wind Speed Wind Dir Waves Ship Positions

Oceanographic research ship Shinyo Maru (Japan)

Detailed information on ship capabilities available from University of Delaware's Ocean Information Center.

Last reported at 2018-Apr-02 12:19 UTC. Time now 2018-Apr-24 01:08 UTC.
Position N 34°22' E 137°46'.
Warning: this ship's position is 21 days out of date.

Length 60 m; beam 10.6 m; draft 4.2 m.

Type: Fishing. MMSI: 431466000.

Date/timePositionNaut miles runAvg speedWind from/ knotsBaromVisibWave heightAir tempDewpointWater temp
2018-Apr-02 12:19N 34°22' E 137°46'711.5
2018-Apr-02 11:42N 34°24' E 137°54'210.8
2018-Apr-02 11:30N 34°24' E 137°57'1211.3
2018-Apr-02 10:25N 34°27' E 138°11'510.5
2018-Apr-02 09:59N 34°29' E 138°17'510.6
2018-Apr-02 09:29N 34°30' E 138°23'510.7
2018-Apr-02 08:58N 34°30' E 138°29'610.7
2018-Apr-02 08:26N 34°31' E 138°36'510.7
2018-Apr-02 08:00N 34°32' E 138°42'710.4
2018-Apr-02 07:20N 34°32' E 138°50'310.1
2018-Apr-02 07:00N 34°33' E 138°54'6 9.9
2018-Apr-02 06:27N 34°35' E 139°01'511.0
2018-Apr-02 06:00N 34°38' E 139°05'8 9.7
2018-Apr-02 05:13N 34°43' E 139°11'210.0
2018-Apr-02 05:00N 34°45' E 139°13'510.2
2018-Apr-02 04:30N 34°49' E 139°17'4 8.5
2018-Apr-02 04:00N 34°51' E 139°21'5 8.7
2018-Apr-02 03:26N 34°54' E 139°26'4 9.7
2018-Apr-02 03:00N 34°57' E 139°30'510.9
2018-Apr-02 02:30N 35°01' E 139°35'611.5
2018-Apr-02 02:00N 35°05' E 139°40'611.8
2018-Apr-02 01:30N 35°09' E 139°44'611.9
2018-Apr-02 01:00N 35°15' E 139°46'612.3
2018-Apr-02 00:31N 35°20' E 139°42'611.8
2018-Apr-02 00:01N 35°26' E 139°42'3 6.5
2018-Apr-01 23:29N 35°29' E 139°39'0 0.0
2018-Apr-01 22:59N 35°29' E 139°39'0 0.0
2018-Apr-01 22:31N 35°29' E 139°39'0 0.0
2018-Apr-01 22:00N 35°29' E 139°39'0 0.0
2018-Apr-01 21:30N 35°29' E 139°39'0 0.0
2018-Apr-01 21:00N 35°29' E 139°39'0 0.0
2018-Apr-01 20:30N 35°29' E 139°39'0 0.0
2018-Apr-01 20:01N 35°29' E 139°39'0 0.0
2018-Apr-01 19:30N 35°29' E 139°39'0 0.0
2018-Apr-01 19:00N 35°29' E 139°39'0 0.0
2018-Apr-01 18:31N 35°29' E 139°39'0 0.0
2018-Apr-01 18:00N 35°29' E 139°39'0 0.0
2018-Apr-01 17:30N 35°29' E 139°39'0 0.0
2018-Apr-01 16:59N 35°29' E 139°39'0 0.0
2018-Apr-01 16:30N 35°29' E 139°39'0 0.0
2018-Apr-01 16:00N 35°29' E 139°39'0 0.0
2018-Apr-01 15:31N 35°29' E 139°39'0 0.0
2018-Apr-01 15:00N 35°29' E 139°39'0 0.0
2018-Apr-01 14:30N 35°29' E 139°39'0 0.0
2018-Apr-01 14:00N 35°29' E 139°39'0 0.0
2018-Apr-01 13:31N 35°29' E 139°39'0 0.0
2018-Apr-01 13:01N 35°29' E 139°39'0 0.0
2018-Apr-01 12:30N 35°29' E 139°39'0 0.0
2018-Apr-01 12:00N 35°29' E 139°39'0 0.0
2018-Apr-01 11:31N 35°29' E 139°39'0 0.0
2018-Apr-01 11:00N 35°29' E 139°39'0 0.0
2018-Apr-01 10:30N 35°29' E 139°39'0 0.0
2018-Apr-01 10:01N 35°29' E 139°39'0 0.0
2018-Apr-01 09:31N 35°29' E 139°39'0 0.0
2018-Apr-01 09:01N 35°29' E 139°39'0 0.0
2018-Apr-01 08:29N 35°29' E 139°39'0 0.0
2018-Apr-01 08:00N 35°29' E 139°39'0 0.0
2018-Apr-01 07:30N 35°29' E 139°39'0 0.0
2018-Apr-01 07:00N 35°29' E 139°39'0 0.0
2018-Apr-01 06:30N 35°29' E 139°39'0 0.0
2018-Apr-01 06:01N 35°29' E 139°39'0 0.0
2018-Apr-01 05:31N 35°29' E 139°39'0 0.0
2018-Apr-01 05:00N 35°29' E 139°39'0 0.0
2018-Apr-01 04:30N 35°29' E 139°39'0 0.0
2018-Apr-01 04:01N 35°29' E 139°39'0 0.0
2018-Apr-01 03:30N 35°29' E 139°39'0 0.0
2018-Apr-01 03:01N 35°29' E 139°39'0 0.0
2018-Apr-01 02:30N 35°29' E 139°39'0 0.0
2018-Apr-01 02:01N 35°29' E 139°39'0 0.0
2018-Apr-01 01:30N 35°29' E 139°39'0 0.0
2018-Apr-01 01:01N 35°29' E 139°39'0 0.0
2018-Apr-01 00:31N 35°29' E 139°39'0 0.0
2018-Apr-01 00:00N 35°29' E 139°39'0 0.0
2018-Mar-31 23:30N 35°29' E 139°39'0 0.0
2018-Mar-31 23:00N 35°29' E 139°39'0 0.0
2018-Mar-31 22:31N 35°29' E 139°39'0 0.0
2018-Mar-31 22:00N 35°29' E 139°39'0 0.0
2018-Mar-31 21:31N 35°29' E 139°39'0 0.0
2018-Mar-31 21:00N 35°29' E 139°39'0 0.0
2018-Mar-31 20:30N 35°29' E 139°39'0 0.0
2018-Mar-31 20:00N 35°29' E 139°39'0 0.0
2018-Mar-31 19:31N 35°29' E 139°39'0 0.0
2018-Mar-31 19:00N 35°29' E 139°39'0 0.0
2018-Mar-31 18:30N 35°29' E 139°39'0 0.0
2018-Mar-31 18:00N 35°29' E 139°39'0 0.0
2018-Mar-31 17:31N 35°29' E 139°39'0 0.0
2018-Mar-31 17:00N 35°29' E 139°39'0 0.0
2018-Mar-31 16:31N 35°29' E 139°39'0 0.0
2018-Mar-31 16:01N 35°29' E 139°39'0 0.0
2018-Mar-31 15:30N 35°29' E 139°39'0 0.0
2018-Mar-31 15:00N 35°29' E 139°39'0 0.0
2018-Mar-31 14:31N 35°29' E 139°39'0 0.0
2018-Mar-31 14:00N 35°29' E 139°39'0 0.0
2018-Mar-31 13:31N 35°29' E 139°39'0 0.0
2018-Mar-31 13:01N 35°29' E 139°39'0 0.0
2018-Mar-31 12:31N 35°29' E 139°39'0 0.0
2018-Mar-31 12:01N 35°29' E 139°39'0 0.0
2018-Mar-31 11:30N 35°29' E 139°39'0 0.0
2018-Mar-31 11:00N 35°29' E 139°39'0 0.0
2018-Mar-31 10:30N 35°29' E 139°39'0 0.0
2018-Mar-31 10:00N 35°29' E 139°39'0 0.0
2018-Mar-31 09:31N 35°29' E 139°39'0 0.0
2018-Mar-31 09:01N 35°29' E 139°39'0 0.0
2018-Mar-31 08:31N 35°29' E 139°39'0 0.0
2018-Mar-31 08:01N 35°29' E 139°39'0 0.0
2018-Mar-31 07:30N 35°29' E 139°39'0 0.0
2018-Mar-31 07:00N 35°29' E 139°39'0 0.0
2018-Mar-31 06:31N 35°29' E 139°39'0 0.0
2018-Mar-31 06:01N 35°29' E 139°39'0 0.0
2018-Mar-31 05:31N 35°29' E 139°39'0 0.0
2018-Mar-31 05:01N 35°29' E 139°39'0 0.0
2018-Mar-31 04:30N 35°29' E 139°39'0 0.0
2018-Mar-31 04:01N 35°29' E 139°39'0 0.0
2018-Mar-31 03:30N 35°29' E 139°39'0 0.0
2018-Mar-31 03:01N 35°29' E 139°39'0 0.0
2018-Mar-31 02:31N 35°29' E 139°39'0 0.0
2018-Mar-31 02:00N 35°29' E 139°39'0 0.0
2018-Mar-31 01:30N 35°29' E 139°39'0 0.0
2018-Mar-31 01:01N 35°29' E 139°39'0 0.0
2018-Mar-31 00:31N 35°29' E 139°39'0 0.0
2018-Mar-31 00:01N 35°29' E 139°39'0 0.0
2018-Mar-30 23:31N 35°29' E 139°39'0 0.0
2018-Mar-30 23:01N 35°29' E 139°39'0 0.0
2018-Mar-30 22:31N 35°29' E 139°39'0 0.0
2018-Mar-30 22:01N 35°29' E 139°39'0 0.0
2018-Mar-30 21:30N 35°29' E 139°39'0 0.0
2018-Mar-30 21:00N 35°29' E 139°39'0 0.0
2018-Mar-30 20:30N 35°29' E 139°39'0 0.0
2018-Mar-30 20:01N 35°29' E 139°39'0 0.0
2018-Mar-30 19:30N 35°29' E 139°39'0 0.0
2018-Mar-30 19:00N 35°29' E 139°39'0 0.0
2018-Mar-30 18:29N 35°29' E 139°39'0 0.0
2018-Mar-30 18:00N 35°29' E 139°39'0 0.0
2018-Mar-30 17:30N 35°29' E 139°39'0 0.0
2018-Mar-30 17:01N 35°29' E 139°39'0 0.0
2018-Mar-30 16:30N 35°29' E 139°39'0 0.0
2018-Mar-30 16:01N 35°29' E 139°39'0 0.0
2018-Mar-30 15:31N 35°29' E 139°39'0 0.0
2018-Mar-30 15:00N 35°29' E 139°39'0 0.0
2018-Mar-30 14:30N 35°29' E 139°39'0 0.0
2018-Mar-30 14:00N 35°29' E 139°39'0 0.0
2018-Mar-30 13:31N 35°29' E 139°39'0 0.0
2018-Mar-30 13:00N 35°29' E 139°39'0 0.0
2018-Mar-30 12:31N 35°29' E 139°39'0 0.0
2018-Mar-30 12:00N 35°29' E 139°39'0 0.0
2018-Mar-30 11:31N 35°29' E 139°39'0 0.0
2018-Mar-30 10:59N 35°29' E 139°39'0 0.0
2018-Mar-30 10:29N 35°29' E 139°39'0 0.0
2018-Mar-30 10:01N 35°29' E 139°39'0 0.0
2018-Mar-30 09:31N 35°29' E 139°39'0 0.0
2018-Mar-30 09:01N 35°29' E 139°39'0 0.0
2018-Mar-30 08:30N 35°29' E 139°39'0 0.0
2018-Mar-30 08:00N 35°29' E 139°39'0 0.0
2018-Mar-30 07:30N 35°29' E 139°39'0 0.0
2018-Mar-30 07:00N 35°29' E 139°39'0 0.0
2018-Mar-30 06:31N 35°29' E 139°39'0 0.0
2018-Mar-30 06:00N 35°29' E 139°39'0 0.0
2018-Mar-30 05:30N 35°29' E 139°39'0 0.0
2018-Mar-30 05:01N 35°29' E 139°39'0 0.0
2018-Mar-30 04:31N 35°29' E 139°39'0 0.0
2018-Mar-30 04:01N 35°29' E 139°39'0 0.0
2018-Mar-30 03:30N 35°29' E 139°39'0 0.0
2018-Mar-30 03:00N 35°29' E 139°39'0 0.0
2018-Mar-30 02:30N 35°29' E 139°39'0 0.0
2018-Mar-30 02:01N 35°29' E 139°39'0 0.0
2018-Mar-30 01:30N 35°29' E 139°39'0 0.0
2018-Mar-30 01:00N 35°29' E 139°39'0 0.0
2018-Mar-30 00:30N 35°29' E 139°39'0 0.0
2018-Mar-30 00:01N 35°29' E 139°39'0 0.0
2018-Mar-29 23:30N 35°29' E 139°39'0 0.3
2018-Mar-29 23:01N 35°29' E 139°39'4 7.3
2018-Mar-29 22:31N 35°26' E 139°42'4 8.5
2018-Mar-29 22:00N 35°22' E 139°43'510.2
2018-Mar-29 21:30N 35°17' E 139°45'5 9.8
2018-Mar-29 21:00N 35°12' E 139°47'5 9.4
2018-Mar-29 20:30N 35°08' E 139°46'5 9.4
2018-Mar-29 20:01N 35°03' E 139°45'6 9.6
2018-Mar-29 19:25N 34°58' E 139°43'1910.0
2018-Mar-29 17:33N 34°40' E 139°36'112.3
2018-Mar-29 17:30N 34°39' E 139°35'  
2018-Mar-27 06:26N 34°23' E 137°50'4 8.8
2018-Mar-27 06:00N 34°27' E 137°50'5 9.6
2018-Mar-27 05:30N 34°32' E 137°50'6 9.6
2018-Mar-27 04:54N 34°32' E 137°57'511.7
2018-Mar-27 04:30N 34°32' E 138°03'912.0
2018-Mar-27 03:46N 34°32' E 138°13'412.5
2018-Mar-27 03:25N 34°32' E 138°19'612.0
2018-Mar-27 02:56N 34°32' E 138°26'611.9
2018-Mar-27 02:27N 34°33' E 138°33'611.5
2018-Mar-27 01:56N 34°33' E 138°40'511.8
2018-Mar-27 01:30N 34°33' E 138°46'611.4
2018-Mar-27 01:00N 34°33' E 138°53'610.6
2018-Mar-27 00:29N 34°34' E 138°60'510.8
2018-Mar-27 00:00N 34°35' E 139°06'510.2
2018-Mar-26 23:30N 34°36' E 139°12'5 9.8
2018-Mar-26 23:00N 34°37' E 139°18'510.0
2018-Mar-26 22:30N 34°38' E 139°24'5 9.5
2018-Mar-26 21:57N 34°40' E 139°30'1611.7
2018-Mar-26 20:35N 34°47' E 139°47'112.1
2018-Mar-26 20:30N 34°48' E 139°48'1011.9
2018-Mar-26 19:42N 34°53' E 139°58'212.3
2018-Mar-26 19:30N 34°54' E 140°01'611.9
2018-Mar-26 18:59N 34°57' E 140°07'611.7
2018-Mar-26 18:29N 35°00' E 140°13'611.3
2018-Mar-26 17:58N 35°03' E 140°19'510.6
2018-Mar-26 17:28N 35°06' E 140°24'5 9.8
2018-Mar-26 16:54N 35°09' E 140°30'610.3
2018-Mar-26 16:21N 35°13' E 140°35'511.5
2018-Mar-26 15:55N 35°17' E 140°39'511.8
2018-Mar-26 15:30N 35°21' E 140°42'612.0
2018-Mar-26 14:59N 35°26' E 140°46'  

Dump ship's entire track history